Terminal Aerodrome Forecast
Issued by NWS Portland, OR

Home | Current Version | Previous Version | Text Only | Print | Product List | Glossary On
Versions: 1 2 3 4 5 6 7 8 9 10 11 12 13 14 15 16 17 18 19 20 21 22 23 24 25 26 27 28 29 30
000
FTUS46 KPQR 180702 AAA
TAFAST
TAF AMD
KAST 180702Z 1807/1906 12003KT P6SM -RA SCT008 SCT015 BKN040
     FM181200 10004KT 5SM BR SCT010 BKN025 OVC050
     FM181500 10008KT P6SM SCT025 BKN050
     FM181900 15011KT 5SM -RA BR SCT015 BKN025 OVC040=

USA.gov is the U.S. government's official web portal to all federal, state and local government web resources and services.